createdAt,value
2018-11-27T00:00:26.143Z,15.17
2018-11-27T00:02:59.820Z,14.73
2018-11-27T00:05:29.040Z,14.80
2018-11-27T00:07:57.646Z,14.10
2018-11-27T00:10:27.684Z,14.20
2018-11-27T00:12:56.276Z,16.27
2018-11-27T00:15:24.861Z,14.40
2018-11-27T00:17:53.507Z,15.47
2018-11-27T00:20:22.076Z,14.83
2018-11-27T00:22:50.628Z,14.43
2018-11-27T00:25:19.491Z,16.00
2018-11-27T00:27:48.075Z,15.50
2018-11-27T00:30:18.130Z,14.70
2018-11-27T00:32:46.655Z,14.27
2018-11-27T00:35:16.717Z,14.50
2018-11-27T00:37:45.264Z,14.93
2018-11-27T00:40:23.491Z,16.20
2018-11-27T00:42:52.527Z,15.33
2018-11-27T00:45:21.781Z,15.30
2018-11-27T00:47:51.190Z,15.07
2018-11-27T00:50:20.972Z,16.77
2018-11-27T00:52:49.560Z,16.17
2018-11-27T00:55:18.997Z,14.87
2018-11-27T00:57:49.614Z,14.30
2018-11-27T01:00:21.199Z,15.43
2018-11-27T01:02:49.792Z,15.60
2018-11-27T01:05:19.765Z,16.10
2018-11-27T01:07:48.348Z,15.23
2018-11-27T01:10:20.130Z,16.73
2018-11-27T01:12:48.707Z,15.30
2018-11-27T01:15:17.376Z,15.70
2018-11-27T01:17:49.730Z,16.50
2018-11-27T01:20:20.156Z,13.50
2018-11-27T01:22:48.788Z,17.13
2018-11-27T01:25:17.384Z,16.20
2018-11-27T01:27:45.916Z,14.50
2018-11-27T01:30:17.584Z,16.80
2018-11-27T01:32:46.217Z,17.60
2018-11-27T01:35:16.555Z,15.07
2018-11-27T01:37:45.364Z,15.27
2018-11-27T01:40:16.933Z,16.57
2018-11-27T01:42:46.085Z,14.60
2018-11-27T01:45:16.542Z,12.80
2018-11-27T01:47:45.208Z,15.90
2018-11-27T01:50:14.658Z,16.60
2018-11-27T01:52:43.236Z,15.20
2018-11-27T01:55:14.717Z,15.50
2018-11-27T01:57:43.453Z,13.27
2018-11-27T02:00:24.497Z,14.37
2018-11-27T02:02:53.523Z,14.13
2018-11-27T02:05:22.719Z,14.83
2018-11-27T02:07:51.405Z,15.10
2018-11-27T02:10:20.089Z,15.13
2018-11-27T02:12:49.873Z,14.67
2018-11-27T02:15:21.580Z,16.53
2018-11-27T02:17:50.205Z,17.50
2018-11-27T02:20:18.765Z,15.40
2018-11-27T02:22:47.333Z,15.70
2018-11-27T02:25:18.037Z,14.63
2018-11-27T02:27:46.598Z,15.67
2018-11-27T02:30:18.224Z,14.50
2018-11-27T02:32:46.864Z,14.70
2018-11-27T02:35:18.518Z,17.00
2018-11-27T02:37:48.144Z,17.10
2018-11-27T02:40:17.439Z,13.70
2018-11-27T02:42:46.011Z,15.90
2018-11-27T02:45:15.928Z,15.80
2018-11-27T02:47:45.036Z,16.03
2018-11-27T02:50:14.960Z,14.37
2018-11-27T02:52:43.561Z,15.83
2018-11-27T02:55:16.067Z,15.53
2018-11-27T02:57:44.745Z,14.00
2018-11-27T03:00:16.199Z,15.40
2018-11-27T03:02:44.775Z,15.50
2018-11-27T03:05:14.651Z,9.77
2018-11-27T03:07:43.305Z,8.50
2018-11-27T03:10:14.767Z,15.33
2018-11-27T03:12:43.403Z,16.00
2018-11-27T03:15:13.857Z,16.93
2018-11-27T03:17:42.499Z,14.23
2018-11-27T03:20:12.227Z,15.00
2018-11-27T03:22:40.878Z,16.10
2018-11-27T03:25:15.620Z,12.70
2018-11-27T03:27:44.835Z,17.70
2018-11-27T03:30:16.290Z,15.77
2018-11-27T03:32:44.890Z,18.47
2018-11-27T03:35:14.600Z,16.93
2018-11-27T03:37:43.555Z,18.83
2018-11-27T03:40:14.393Z,13.33
2018-11-27T03:42:42.975Z,18.40
2018-11-27T03:45:12.707Z,18.30
2018-11-27T03:47:41.307Z,19.03
2018-11-27T03:50:15.371Z,18.50
2018-11-27T03:52:43.959Z,19.70
2018-11-27T03:55:13.103Z,21.60
2018-11-27T03:57:41.705Z,18.83
2018-11-27T04:00:14.714Z,20.30
2018-11-27T04:02:43.693Z,18.70
2018-11-27T04:05:13.045Z,18.37
2018-11-27T04:07:41.564Z,18.00
2018-11-27T04:10:12.151Z,17.83
2018-11-27T04:12:40.731Z,20.60
2018-11-27T04:15:09.760Z,16.67
2018-11-27T04:17:38.353Z,19.40
2018-11-27T04:20:08.501Z,20.00
2018-11-27T04:22:37.390Z,13.00
2018-11-27T04:25:14.443Z,21.00
2018-11-27T04:27:43.486Z,18.57
2018-11-27T04:30:16.588Z,20.17
2018-11-27T04:32:45.212Z,21.07
2018-11-27T04:35:16.581Z,18.47
2018-11-27T04:37:45.221Z,19.07
2018-11-27T04:40:17.742Z,19.60
2018-11-27T04:42:46.436Z,19.70
2018-11-27T04:45:20.304Z,21.47
2018-11-27T04:47:48.895Z,20.67
2018-11-27T04:50:18.150Z,20.10
2018-11-27T04:52:46.749Z,22.63
2018-11-27T04:55:16.488Z,20.87
2018-11-27T04:57:45.970Z,23.73
2018-11-27T05:00:16.443Z,20.53
2018-11-27T05:02:45.037Z,20.43
2018-11-27T05:05:13.621Z,21.77
2018-11-27T05:07:42.246Z,19.03
2018-11-27T05:10:13.588Z,18.17
2018-11-27T05:12:42.578Z,17.97
2018-11-27T05:15:15.259Z,17.80
2018-11-27T05:17:47.950Z,20.10
2018-11-27T05:20:13.268Z,17.10
2018-11-27T05:22:41.934Z,20.30
2018-11-27T05:25:12.443Z,18.23
2018-11-27T05:27:42.104Z,20.60
2018-11-27T05:30:13.166Z,18.17
2018-11-27T05:32:41.730Z,21.20
2018-11-27T05:35:11.821Z,18.90
2018-11-27T05:37:41.363Z,19.57
2018-11-27T05:40:12.163Z,19.30
2018-11-27T05:42:41.154Z,18.77
2018-11-27T05:45:18.740Z,10.67
2018-11-27T05:47:47.308Z,17.40
2018-11-27T05:50:16.863Z,13.27
2018-11-27T05:52:45.447Z,17.90
2018-11-27T05:55:14.701Z,17.73
2018-11-27T05:57:44.192Z,16.70
2018-11-27T06:00:17.872Z,20.60
2018-11-27T06:02:47.432Z,18.60
2018-11-27T06:05:18.178Z,17.90
2018-11-27T06:07:46.883Z,17.77
2018-11-27T06:10:16.424Z,18.40
2018-11-27T06:12:45.045Z,21.33
2018-11-27T06:15:17.827Z,22.10
2018-11-27T06:17:47.439Z,22.57
2018-11-27T06:20:17.950Z,22.10
2018-11-27T06:22:46.611Z,20.30
2018-11-27T06:25:18.985Z,19.20
2018-11-27T06:27:49.011Z,20.50
2018-11-27T06:30:18.826Z,18.07
2018-11-27T06:32:47.437Z,19.90
2018-11-27T06:35:24.069Z,18.03
2018-11-27T06:37:52.708Z,22.20
2018-11-27T06:40:24.548Z,19.83
2018-11-27T06:42:53.240Z,18.00
2018-11-27T06:45:22.227Z,17.80
2018-11-27T06:47:51.868Z,21.13
2018-11-27T06:50:21.454Z,20.90
2018-11-27T06:52:50.157Z,21.57
2018-11-27T06:55:20.608Z,16.13
2018-11-27T06:57:49.283Z,18.00
2018-11-27T07:00:21.883Z,21.07
2018-11-27T07:02:50.501Z,20.73
2018-11-27T07:05:19.168Z,17.07
2018-11-27T07:07:47.773Z,22.30
2018-11-27T07:10:20.362Z,19.80
2018-11-27T07:12:50.338Z,20.73
2018-11-27T07:15:21.177Z,19.07
2018-11-27T07:17:49.783Z,21.67
2018-11-27T07:20:18.396Z,20.73
2018-11-27T07:22:47.042Z,20.33
2018-11-27T07:25:16.304Z,22.00
2018-11-27T07:27:49.048Z,20.97
2018-11-27T07:30:18.765Z,18.43
2018-11-27T07:32:47.372Z,20.63
2018-11-27T07:35:16.782Z,16.63
2018-11-27T07:37:45.377Z,14.97
2018-11-27T07:40:17.156Z,18.90
2018-11-27T07:42:46.028Z,21.03
2018-11-27T07:45:15.903Z,20.07
2018-11-27T07:47:44.490Z,20.50
2018-11-27T07:50:13.885Z,21.27
2018-11-27T07:52:42.655Z,20.93
2018-11-27T07:55:13.209Z,20.70
2018-11-27T07:57:41.855Z,20.30
2018-11-27T08:00:16.384Z,20.03
2018-11-27T08:02:47.064Z,22.57
2018-11-27T08:05:17.105Z,22.93
2018-11-27T08:07:48.475Z,21.50
2018-11-27T08:10:18.430Z,21.00
2018-11-27T08:12:47.047Z,20.77
2018-11-27T08:15:18.524Z,20.47
2018-11-27T08:17:47.141Z,19.00
2018-11-27T08:20:16.947Z,24.00
2018-11-27T08:22:45.561Z,22.87
2018-11-27T08:25:14.936Z,27.87
2018-11-27T08:27:43.555Z,32.80
2018-11-27T08:30:18.976Z,24.50
2018-11-27T08:32:47.675Z,25.87
2018-11-27T08:35:18.532Z,32.37
2018-11-27T08:37:48.193Z,28.90
2018-11-27T08:40:17.764Z,24.20
2018-11-27T08:42:46.379Z,26.47
2018-11-27T08:45:16.075Z,22.23
2018-11-27T08:47:44.972Z,18.80
2018-11-27T08:50:16.459Z,21.73
2018-11-27T08:52:47.266Z,21.83
2018-11-27T08:55:17.656Z,20.83
2018-11-27T08:57:46.958Z,22.83
2018-11-27T09:00:16.762Z,21.60
2018-11-27T09:02:45.641Z,19.57
2018-11-27T09:05:14.525Z,20.70
2018-11-27T09:07:43.768Z,21.57
2018-11-27T09:10:14.044Z,22.13
2018-11-27T09:12:42.616Z,21.73
2018-11-27T09:15:12.599Z,26.20
2018-11-27T09:17:42.121Z,23.27
2018-11-27T09:20:11.724Z,21.00
2018-11-27T09:22:40.328Z,24.50
2018-11-27T09:25:10.522Z,23.17
2018-11-27T09:27:39.155Z,22.60
2018-11-27T09:30:14.447Z,22.57
2018-11-27T09:32:43.129Z,19.90
2018-11-27T09:35:11.852Z,22.00
2018-11-27T09:37:40.499Z,22.17
2018-11-27T09:40:11.521Z,23.93
2018-11-27T09:42:40.138Z,21.70
2018-11-27T09:45:10.935Z,21.93
2018-11-27T09:47:39.697Z,23.20
2018-11-27T09:50:10.403Z,18.83
2018-11-27T09:52:39.097Z,20.40
2018-11-27T09:55:25.700Z,19.87
2018-11-27T09:57:59.127Z,18.13
2018-11-27T10:00:24.167Z,20.23
2018-11-27T10:02:54.077Z,21.00
2018-11-27T10:05:22.664Z,21.97
2018-11-27T10:07:51.291Z,21.07
2018-11-27T10:10:21.279Z,19.93
2018-11-27T10:12:49.993Z,23.10
2018-11-27T10:15:20.613Z,19.97
2018-11-27T10:17:50.567Z,22.70
2018-11-27T10:20:21.164Z,22.07
2018-11-27T10:22:50.875Z,18.37
2018-11-27T10:25:19.494Z,22.03
2018-11-27T10:27:48.094Z,25.57
2018-11-27T10:30:21.128Z,23.43
2018-11-27T10:32:50.595Z,14.67
2018-11-27T10:35:21.890Z,21.77
2018-11-27T10:37:50.525Z,22.17
2018-11-27T10:40:19.306Z,21.07
2018-11-27T10:42:48.055Z,20.97
2018-11-27T10:45:18.647Z,15.10
2018-11-27T10:47:48.426Z,19.43
2018-11-27T10:50:17.684Z,26.63
2018-11-27T10:52:47.440Z,23.37
2018-11-27T10:55:17.185Z,18.60
2018-11-27T10:57:45.752Z,20.77
2018-11-27T11:00:24.040Z,20.23
2018-11-27T11:03:24.874Z,20.53
2018-11-27T11:05:54.661Z,17.30
2018-11-27T11:08:23.479Z,17.23
2018-11-27T11:10:52.097Z,20.73
2018-11-27T11:13:20.747Z,18.90
2018-11-27T11:15:49.330Z,15.17
2018-11-27T11:18:17.965Z,19.13
2018-11-27T11:20:46.556Z,19.90
2018-11-27T11:23:15.119Z,13.03
2018-11-27T11:25:44.606Z,19.60
2018-11-27T11:28:12.550Z,21.27
2018-11-27T11:30:41.148Z,15.70
2018-11-27T11:33:09.831Z,20.67
2018-11-27T11:35:38.428Z,20.53
2018-11-27T11:38:07.263Z,20.00
2018-11-27T11:40:35.897Z,20.50
2018-11-27T11:43:04.562Z,22.20
2018-11-27T11:45:33.107Z,20.80
2018-11-27T11:48:01.715Z,20.13
2018-11-27T11:50:32.284Z,20.17
2018-11-27T11:53:13.315Z,11.47
2018-11-27T11:55:41.977Z,18.90
2018-11-27T11:58:10.549Z,17.60
2018-11-27T12:00:42.788Z,15.90
2018-11-27T12:03:11.411Z,16.97
2018-11-27T12:05:40.113Z,21.20
2018-11-27T12:08:09.272Z,13.27
2018-11-27T12:10:38.328Z,19.60
2018-11-27T12:13:08.518Z,19.83
2018-11-27T12:15:37.171Z,21.47
2018-11-27T12:18:06.242Z,17.70
2018-11-27T12:20:35.070Z,23.00
2018-11-27T12:23:03.903Z,19.03
2018-11-27T12:25:32.511Z,19.60
2018-11-27T12:28:01.191Z,18.47
2018-11-27T12:30:29.792Z,19.57
2018-11-27T12:32:58.475Z,20.30
2018-11-27T12:35:27.056Z,19.50
2018-11-27T12:37:55.692Z,21.47
2018-11-27T12:40:25.898Z,16.10
2018-11-27T12:42:55.027Z,19.53
2018-11-27T12:45:26.560Z,17.77
2018-11-27T12:47:55.928Z,17.47
2018-11-27T12:50:34.071Z,17.80
2018-11-27T12:53:02.780Z,13.03
2018-11-27T12:55:31.414Z,19.53
2018-11-27T12:58:00.015Z,17.53
2018-11-27T13:00:28.625Z,20.10
2018-11-27T13:02:57.258Z,18.23
2018-11-27T13:05:27.177Z,25.97
2018-11-27T13:08:00.509Z,22.50
2018-11-27T13:10:29.122Z,16.57
2018-11-27T13:12:57.792Z,14.57
2018-11-27T13:15:26.437Z,18.20
2018-11-27T13:17:55.135Z,15.93
2018-11-27T13:20:23.740Z,17.37
2018-11-27T13:22:52.476Z,16.07
2018-11-27T13:25:23.702Z,16.63
2018-11-27T13:27:55.083Z,16.73
2018-11-27T13:30:32.576Z,17.33
2018-11-27T13:34:12.972Z,16.77
2018-11-27T13:36:43.829Z,16.97
2018-11-27T13:39:23.624Z,16.60
2018-11-27T13:41:52.251Z,16.20
2018-11-27T13:44:20.873Z,16.67
2018-11-27T13:46:49.567Z,17.10
2018-11-27T13:49:18.193Z,20.00
2018-11-27T13:51:46.860Z,18.40
2018-11-27T13:54:15.444Z,15.63
2018-11-27T13:56:44.027Z,15.90
2018-11-27T13:59:12.623Z,18.03
2018-11-27T14:01:41.222Z,17.13
2018-11-27T14:04:09.827Z,15.77
2018-11-27T14:06:38.459Z,17.03
2018-11-27T14:09:09.364Z,18.10
2018-11-27T14:11:38.142Z,17.10
2018-11-27T14:14:07.411Z,16.90
2018-11-27T14:16:36.293Z,16.70
2018-11-27T14:19:04.946Z,16.10
2018-11-27T14:21:33.632Z,16.67
2018-11-27T14:24:02.261Z,14.30
2018-11-27T14:26:30.932Z,16.80
2018-11-27T14:28:59.592Z,15.70
2018-11-27T14:31:28.232Z,17.03
2018-11-27T14:33:56.860Z,15.83
2018-11-27T14:36:26.596Z,15.70
2018-11-27T14:38:55.225Z,17.60
2018-11-27T14:41:23.793Z,16.20
2018-11-27T14:43:52.377Z,16.20
2018-11-27T14:46:20.959Z,15.80
2018-11-27T14:48:49.592Z,16.63
2018-11-27T14:51:18.311Z,16.23
2018-11-27T14:53:46.920Z,14.37
2018-11-27T14:56:15.519Z,15.63
2018-11-27T14:58:44.065Z,17.03
2018-11-27T15:01:12.659Z,17.20
2018-11-27T15:03:41.252Z,18.40
2018-11-27T15:06:09.858Z,15.93
2018-11-27T15:08:38.447Z,18.03
2018-11-27T15:11:12.578Z,18.90
2018-11-27T15:13:35.734Z,17.43
2018-11-27T15:16:04.352Z,18.40
2018-11-27T15:18:32.967Z,18.17
2018-11-27T15:21:01.519Z,19.70
2018-11-27T15:23:30.100Z,19.97
2018-11-27T15:25:58.708Z,19.87
2018-11-27T15:28:27.277Z,20.67
2018-11-27T15:30:55.930Z,19.63
2018-11-27T15:33:24.608Z,20.03
2018-11-27T15:35:53.252Z,20.80
2018-11-27T15:38:21.812Z,19.00
2018-11-27T15:40:50.423Z,18.60
2018-11-27T15:43:19.027Z,19.90
2018-11-27T15:45:47.578Z,19.37
2018-11-27T15:48:16.188Z,19.87
2018-11-27T15:50:44.756Z,17.60
2018-11-27T15:53:13.316Z,18.67
2018-11-27T15:55:41.865Z,18.20
2018-11-27T15:58:13.527Z,16.97
2018-11-27T16:00:43.007Z,17.97
2018-11-27T16:03:11.870Z,16.27
2018-11-27T16:05:43.383Z,18.90
2018-11-27T16:08:12.033Z,20.00
2018-11-27T16:10:40.591Z,16.67
2018-11-27T16:13:09.159Z,18.10
2018-11-27T16:15:37.889Z,19.23
2018-11-27T16:18:07.388Z,19.00
2018-11-27T16:20:35.985Z,17.40
2018-11-27T16:23:04.692Z,18.70
2018-11-27T16:25:33.379Z,19.77
2018-11-27T16:28:01.992Z,19.33
2018-11-27T16:30:31.366Z,19.60
2018-11-27T16:32:59.926Z,20.23
2018-11-27T16:35:28.520Z,19.67
2018-11-27T16:37:59.229Z,19.87
2018-11-27T16:40:32.355Z,20.37
2018-11-27T16:43:00.896Z,18.30
2018-11-27T16:45:29.550Z,18.33
2018-11-27T16:47:58.103Z,20.93
2018-11-27T16:50:26.720Z,20.17
2018-11-27T16:52:55.273Z,18.00
2018-11-27T16:55:24.537Z,22.40
2018-11-27T16:57:53.107Z,19.23
2018-11-27T17:00:29.247Z,19.73
2018-11-27T17:02:59.813Z,19.90
2018-11-27T17:05:29.914Z,21.00
2018-11-27T17:07:58.446Z,19.27
2018-11-27T17:10:27.096Z,20.93
2018-11-27T17:12:56.833Z,19.07
2018-11-27T17:15:26.474Z,19.90
2018-11-27T17:17:55.042Z,24.57
2018-11-27T17:20:27.827Z,22.00
2018-11-27T17:22:57.496Z,19.87
2018-11-27T17:25:26.118Z,18.13
2018-11-27T17:27:55.471Z,19.97
2018-11-27T17:30:44.288Z,19.93
2018-11-27T17:33:16.932Z,20.13
2018-11-27T17:35:45.504Z,19.10
2018-11-27T17:38:14.053Z,19.80
2018-11-27T17:40:42.620Z,18.00
2018-11-27T17:43:11.165Z,20.17
2018-11-27T17:45:39.729Z,19.67
2018-11-27T17:48:08.271Z,19.60
2018-11-27T17:50:36.836Z,20.10
2018-11-27T17:53:05.749Z,18.87
2018-11-27T17:55:34.309Z,18.87
2018-11-27T17:58:02.915Z,18.83
2018-11-27T18:00:31.532Z,18.27
2018-11-27T18:03:02.727Z,19.67
2018-11-27T18:05:31.316Z,20.23
2018-11-27T18:08:00.746Z,20.10
2018-11-27T18:10:28.513Z,20.63
2018-11-27T18:12:57.113Z,20.70
2018-11-27T18:15:25.757Z,19.57
2018-11-27T18:17:54.414Z,19.33
2018-11-27T18:20:22.955Z,21.53
2018-11-27T18:22:51.536Z,19.57
2018-11-27T18:25:20.742Z,20.10
2018-11-27T18:27:50.267Z,19.40
2018-11-27T18:30:20.301Z,20.70
2018-11-27T18:32:48.947Z,19.70
2018-11-27T18:35:19.336Z,19.13
2018-11-27T18:37:48.242Z,20.20
2018-11-27T18:40:17.307Z,19.70
2018-11-27T18:42:46.264Z,19.53
2018-11-27T18:45:17.881Z,19.97
2018-11-27T18:47:46.628Z,22.80
2018-11-27T18:50:15.262Z,20.57
2018-11-27T18:52:44.004Z,19.13
2018-11-27T18:55:13.934Z,19.77
2018-11-27T18:57:43.249Z,19.13
2018-11-27T19:00:14.962Z,19.07
2018-11-27T19:02:43.561Z,16.63
2018-11-27T19:05:12.180Z,17.97
2018-11-27T19:07:40.875Z,20.27
2018-11-27T19:10:12.484Z,19.07
2018-11-27T19:12:41.058Z,20.17
2018-11-27T19:15:18.209Z,23.87
2018-11-27T19:17:48.096Z,21.10
2018-11-27T19:20:16.673Z,23.10
2018-11-27T19:22:45.222Z,23.73
2018-11-27T19:25:15.758Z,22.10
2018-11-27T19:27:44.295Z,19.80
2018-11-27T19:30:19.922Z,20.87
2018-11-27T19:32:48.476Z,20.37
2018-11-27T19:35:24.995Z,24.67
2018-11-27T19:37:48.720Z,21.70
2018-11-27T19:40:18.351Z,22.47
2018-11-27T19:42:46.915Z,24.23
2018-11-27T19:45:21.447Z,24.10
2018-11-27T19:47:50.145Z,21.20
2018-11-27T19:50:18.724Z,19.10
2018-11-27T19:52:48.491Z,24.60
2018-11-27T19:55:17.988Z,22.73
2018-11-27T19:57:46.659Z,21.93
2018-11-27T20:00:32.112Z,22.17
2018-11-27T20:03:00.672Z,21.97
2018-11-27T20:05:30.060Z,22.97
2018-11-27T20:07:58.645Z,21.17
2018-11-27T20:10:27.215Z,19.00
2018-11-27T20:12:55.794Z,19.90
2018-11-27T20:15:27.517Z,23.50
2018-11-27T20:17:56.653Z,25.77
2018-11-27T20:20:26.500Z,25.70
2018-11-27T20:22:56.075Z,23.33
2018-11-27T20:25:25.021Z,24.50
2018-11-27T20:27:53.885Z,24.10
2018-11-27T20:30:24.652Z,22.07
2018-11-27T20:32:58.253Z,22.63
2018-11-27T20:35:27.344Z,22.60
2018-11-27T20:37:56.499Z,21.67
2018-11-27T20:40:25.268Z,22.70
2018-11-27T20:42:53.847Z,22.23
2018-11-27T20:45:23.840Z,21.27
2018-11-27T20:48:26.170Z,23.07
2018-11-27T20:50:54.736Z,24.23
2018-11-27T20:53:23.438Z,25.27
2018-11-27T20:55:52.056Z,27.80
2018-11-27T20:58:20.688Z,22.67
2018-11-27T21:00:50.743Z,27.63
2018-11-27T21:03:19.413Z,21.10
2018-11-27T21:05:48.051Z,21.47
2018-11-27T21:08:16.623Z,22.00
2018-11-27T21:10:45.222Z,23.03
2018-11-27T21:13:13.896Z,21.13
2018-11-27T21:15:43.426Z,21.50
2018-11-27T21:18:12.542Z,20.30
2018-11-27T21:20:41.791Z,20.60
2018-11-27T21:23:10.399Z,23.17
2018-11-27T21:25:39.006Z,22.30
2018-11-27T21:28:12.128Z,21.53
2018-11-27T21:30:40.763Z,22.10
2018-11-27T21:33:09.342Z,20.40
2018-11-27T21:35:38.069Z,21.17
2018-11-27T21:38:06.792Z,21.60
2018-11-27T21:40:35.772Z,22.40
2018-11-27T21:43:04.604Z,20.80
2018-11-27T21:45:33.185Z,21.90
2018-11-27T21:48:01.841Z,22.07
2018-11-27T21:50:35.694Z,22.10
2018-11-27T21:53:04.336Z,24.60
2018-11-27T21:55:32.945Z,23.50
2018-11-27T21:58:01.702Z,23.47
2018-11-27T22:00:30.275Z,21.23
2018-11-27T22:02:58.855Z,21.47
2018-11-27T22:05:27.483Z,21.57
2018-11-27T22:07:56.071Z,21.67
2018-11-27T22:10:25.932Z,22.43
2018-11-27T22:12:57.774Z,22.87
2018-11-27T22:15:28.822Z,21.10
2018-11-27T22:17:57.445Z,22.83
2018-11-27T22:20:26.020Z,21.57
2018-11-27T22:22:54.744Z,21.37
2018-11-27T22:25:23.370Z,23.33
2018-11-27T22:27:51.984Z,24.93
2018-11-27T22:30:21.153Z,23.13
2018-11-27T22:32:51.569Z,23.23
2018-11-27T22:35:20.164Z,21.00
2018-11-27T22:37:48.840Z,23.10
2018-11-27T22:40:19.368Z,22.40
2018-11-27T22:42:48.468Z,23.80
2018-11-27T22:45:22.391Z,22.80
2018-11-27T22:47:51.000Z,20.87
2018-11-27T22:50:19.880Z,23.67
2018-11-27T22:52:48.439Z,20.70
2018-11-27T22:55:17.031Z,21.20
2018-11-27T22:57:45.700Z,20.17
2018-11-27T23:00:29.402Z,22.77
2018-11-27T23:02:58.064Z,21.67
2018-11-27T23:05:26.655Z,20.40
2018-11-27T23:07:55.241Z,21.60
2018-11-27T23:10:24.029Z,23.03
2018-11-27T23:12:52.668Z,20.47
2018-11-27T23:15:21.945Z,21.40
2018-11-27T23:17:50.633Z,22.40
2018-11-27T23:20:19.777Z,23.43
2018-11-27T23:22:48.396Z,24.37
2018-11-27T23:25:18.178Z,21.47
2018-11-27T23:27:46.755Z,22.30
2018-11-27T23:30:23.942Z,21.93
2018-11-27T23:32:52.585Z,21.33
2018-11-27T23:35:21.247Z,21.60
2018-11-27T23:37:49.823Z,21.90
2018-11-27T23:40:19.398Z,22.00
2018-11-27T23:42:48.277Z,23.70
2018-11-27T23:45:22.512Z,22.10
2018-11-27T23:47:51.230Z,22.83
2018-11-27T23:50:20.795Z,23.30
2018-11-27T23:52:49.451Z,22.30
2018-11-27T23:55:18.904Z,20.90
2018-11-27T23:57:47.864Z,19.00
